Aérodrome :
LOGIN :

S'inscrire | Disclaimer

   EN    FR    IT 

 










Légende :    VFR   VFR Marginal   IFR   IFR Intensif   IFR Très Intensif
Visi : 
Plafond : 
>= 8 km
>= 3000ft
5 à 8 km
1000 à 3000 ft
1500m à 5 km
500 à 1000 ft
800 à 1500m
200 à 500 ft
< 800m
< 200 ft
Symboles :   Orages  Brouillard  Fortes neiges  Fortes précipitations  Vent > 20 kt
SIGMETs :   Divers  Orages  Givrage  Turbulence  Onde Orograph.  Cendres Volcan.







- Altitude de l'aérodrome : 489 ft
- Code IATA : GDN


EPGD - Gdansk

DERNIER METAR :
  • 231630Z 05006KT 9999 BKN006 07/07 Q1016

METARs EXPIRÉS :
  • 231600Z 04007KT 9999 SCT005 OVC007 08/07 Q1016
  • 231530Z 04008KT 9999 OVC004 08/07 Q1016
  • 231500Z 04009KT 9999 OVC004 08/07 Q1015
  • 231430Z 03008KT 9999 OVC004 08/08 Q1015
  • 231400Z 04008KT 9999 BKN004 08/08 Q1014

TAF AMD TAF EPGD
Valide du 23 à 13h jusqu'au 24 à 12h UTC


231322Z 2313/2412 04010KT 9999 BKN005
PROB40
TEMPO 2313/2316 SHRA BKN003 BKN012TCU
BECMG 2318/2321 4000 BR
TEMPO 2321/2407 2000 DZ BR BKN002
BECMG 2407/2409 10010KT 8000 BKN008
Pas de NOTAMs connus pour ce terrain.



MET'MAP, la Météo Aéronautique d'un coup d'oeil ! - Copyright ORBIFLY Décembre 2007 - Disclaimer

ORBIFLY MET'MAP TEAM :

Programmation & Développement : Alexandra Zaïnal
Conception & Développement : Baudouin d'Aumeries
Co-Programmation & Développement : Marc-Olivier Méhu
Soutien technique & logistique : Manuel Goepfert

Contact : metmap@orbifly.com




SOURCES & CREDITS :

   NOAA